sensor_id;sensor_type;location;lat;lon;timestamp;temperature;humidity
29803;DHT22;16702;50.898;4.662;2023-05-07T00:02:06;18.30;99.90
29803;DHT22;16702;50.898;4.662;2023-05-07T00:04:38;18.30;99.90
29803;DHT22;16702;50.898;4.662;2023-05-07T00:07:08;18.30;99.90
29803;DHT22;16702;50.898;4.662;2023-05-07T00:09:39;18.30;99.90
29803;DHT22;16702;50.898;4.662;2023-05-07T00:12:12;18.20;99.90
29803;DHT22;16702;50.898;4.662;2023-05-07T00:14:43;18.20;99.90
29803;DHT22;16702;50.898;4.662;2023-05-07T00:17:13;18.30;99.90
29803;DHT22;16702;50.898;4.662;2023-05-07T00:19:44;18.30;99.90
29803;DHT22;16702;50.898;4.662;2023-05-07T00:22:15;18.20;99.90
29803;DHT22;16702;50.898;4.662;2023-05-07T00:24:45;18.20;99.90
29803;DHT22;16702;50.898;4.662;2023-05-07T00:27:18;18.20;99.90
29803;DHT22;16702;50.898;4.662;2023-05-07T00:29:49;18.20;99.90
29803;DHT22;16702;50.898;4.662;2023-05-07T00:32:19;18.20;99.90
29803;DHT22;16702;50.898;4.662;2023-05-07T00:34:50;18.20;99.90
29803;DHT22;16702;50.898;4.662;2023-05-07T00:37:21;18.20;99.90
29803;DHT22;16702;50.898;4.662;2023-05-07T00:39:51;18.20;99.90
29803;DHT22;16702;50.898;4.662;2023-05-07T00:42:25;18.20;99.90
29803;DHT22;16702;50.898;4.662;2023-05-07T00:44:57;18.20;99.90
29803;DHT22;16702;50.898;4.662;2023-05-07T00:47:27;18.20;99.90
29803;DHT22;16702;50.898;4.662;2023-05-07T00:49:58;18.20;99.90
29803;DHT22;16702;50.898;4.662;2023-05-07T00:52:29;18.20;99.90
29803;DHT22;16702;50.898;4.662;2023-05-07T00:55:04;18.20;99.90
29803;DHT22;16702;50.898;4.662;2023-05-07T00:57:41;18.10;99.90
29803;DHT22;16702;50.898;4.662;2023-05-07T01:00:14;18.10;99.90
29803;DHT22;16702;50.898;4.662;2023-05-07T01:02:45;18.10;99.90
29803;DHT22;16702;50.898;4.662;2023-05-07T01:05:18;18.10;99.90
29803;DHT22;16702;50.898;4.662;2023-05-07T01:07:52;18.10;99.90
29803;DHT22;16702;50.898;4.662;2023-05-07T01:10:24;18.10;99.90
29803;DHT22;16702;50.898;4.662;2023-05-07T01:12:58;18.00;99.90
29803;DHT22;16702;50.898;4.662;2023-05-07T01:15:29;18.10;99.90
29803;DHT22;16702;50.898;4.662;2023-05-07T01:18:01;18.10;99.90
29803;DHT22;16702;50.898;4.662;2023-05-07T01:20:34;18.10;99.90
29803;DHT22;16702;50.898;4.662;2023-05-07T01:23:09;18.10;99.90
29803;DHT22;16702;50.898;4.662;2023-05-07T01:25:41;18.10;99.90
29803;DHT22;16702;50.898;4.662;2023-05-07T01:28:12;18.10;99.90
29803;DHT22;16702;50.898;4.662;2023-05-07T01:30:46;18.10;99.90
29803;DHT22;16702;50.898;4.662;2023-05-07T01:33:21;18.00;99.90
29803;DHT22;16702;50.898;4.662;2023-05-07T01:35:53;18.10;99.90
29803;DHT22;16702;50.898;4.662;2023-05-07T01:38:27;18.00;99.90
29803;DHT22;16702;50.898;4.662;2023-05-07T01:40:58;18.00;99.90
29803;DHT22;16702;50.898;4.662;2023-05-07T01:43:29;18.00;99.90
29803;DHT22;16702;50.898;4.662;2023-05-07T01:46:01;18.00;99.90
29803;DHT22;16702;50.898;4.662;2023-05-07T01:48:33;18.00;99.90
29803;DHT22;16702;50.898;4.662;2023-05-07T01:51:04;18.00;99.90
29803;DHT22;16702;50.898;4.662;2023-05-07T01:53:39;18.00;99.90
29803;DHT22;16702;50.898;4.662;2023-05-07T01:56:12;18.00;99.90
29803;DHT22;16702;50.898;4.662;2023-05-07T01:58:44;18.00;99.90
29803;DHT22;16702;50.898;4.662;2023-05-07T02:01:15;18.00;99.90
29803;DHT22;16702;50.898;4.662;2023-05-07T02:03:46;17.90;99.90
29803;DHT22;16702;50.898;4.662;2023-05-07T02:06:23;17.90;99.90
29803;DHT22;16702;50.898;4.662;2023-05-07T02:09:01;17.90;99.90
29803;DHT22;16702;50.898;4.662;2023-05-07T02:11:32;17.90;99.90
29803;DHT22;16702;50.898;4.662;2023-05-07T02:14:03;17.90;99.90
29803;DHT22;16702;50.898;4.662;2023-05-07T02:16:34;17.90;99.90
29803;DHT22;16702;50.898;4.662;2023-05-07T02:19:06;17.90;99.90
29803;DHT22;16702;50.898;4.662;2023-05-07T02:21:37;17.90;99.90
29803;DHT22;16702;50.898;4.662;2023-05-07T02:24:10;17.90;99.90
29803;DHT22;16702;50.898;4.662;2023-05-07T02:26:41;17.90;99.90
29803;DHT22;16702;50.898;4.662;2023-05-07T02:29:13;17.90;99.90
29803;DHT22;16702;50.898;4.662;2023-05-07T02:31:44;17.90;99.90
29803;DHT22;16702;50.898;4.662;2023-05-07T02:34:15;17.90;99.90
29803;DHT22;16702;50.898;4.662;2023-05-07T02:36:45;17.90;99.90
29803;DHT22;16702;50.898;4.662;2023-05-07T02:39:24;17.90;99.90
29803;DHT22;16702;50.898;4.662;2023-05-07T02:41:56;17.90;99.90
29803;DHT22;16702;50.898;4.662;2023-05-07T02:44:28;17.90;99.90
29803;DHT22;16702;50.898;4.662;2023-05-07T02:46:59;17.90;99.90
29803;DHT22;16702;50.898;4.662;2023-05-07T02:49:31;17.90;99.90
29803;DHT22;16702;50.898;4.662;2023-05-07T02:52:02;17.90;99.90
29803;DHT22;16702;50.898;4.662;2023-05-07T02:54:36;17.90;99.90
29803;DHT22;16702;50.898;4.662;2023-05-07T02:57:06;17.80;99.90
29803;DHT22;16702;50.898;4.662;2023-05-07T02:59:37;17.80;99.90
29803;DHT22;16702;50.898;4.662;2023-05-07T03:02:09;17.80;99.90
29803;DHT22;16702;50.898;4.662;2023-05-07T03:04:40;17.70;99.90
29803;DHT22;16702;50.898;4.662;2023-05-07T03:07:11;17.70;99.90
29803;DHT22;16702;50.898;4.662;2023-05-07T03:09:45;17.70;99.90
29803;DHT22;16702;50.898;4.662;2023-05-07T03:12:15;17.70;99.90
29803;DHT22;16702;50.898;4.662;2023-05-07T03:14:47;17.70;99.90
29803;DHT22;16702;50.898;4.662;2023-05-07T03:17:18;17.70;99.90
29803;DHT22;16702;50.898;4.662;2023-05-07T03:19:48;17.70;99.90
29803;DHT22;16702;50.898;4.662;2023-05-07T03:22:19;17.70;99.90
29803;DHT22;16702;50.898;4.662;2023-05-07T03:24:53;17.70;99.90
29803;DHT22;16702;50.898;4.662;2023-05-07T03:27:23;17.70;99.90
29803;DHT22;16702;50.898;4.662;2023-05-07T03:29:55;17.70;99.90
29803;DHT22;16702;50.898;4.662;2023-05-07T03:32:26;17.70;99.90
29803;DHT22;16702;50.898;4.662;2023-05-07T03:34:58;17.70;99.90
29803;DHT22;16702;50.898;4.662;2023-05-07T03:37:29;17.70;99.90
29803;DHT22;16702;50.898;4.662;2023-05-07T03:40:03;17.60;99.90
29803;DHT22;16702;50.898;4.662;2023-05-07T03:42:41;17.60;99.90
29803;DHT22;16702;50.898;4.662;2023-05-07T03:45:13;17.60;99.90
29803;DHT22;16702;50.898;4.662;2023-05-07T03:47:49;17.50;99.90
29803;DHT22;16702;50.898;4.662;2023-05-07T03:50:22;17.60;99.90
29803;DHT22;16702;50.898;4.662;2023-05-07T03:52:53;17.60;99.90
29803;DHT22;16702;50.898;4.662;2023-05-07T03:55:27;17.60;99.90
29803;DHT22;16702;50.898;4.662;2023-05-07T03:57:59;17.60;99.90
29803;DHT22;16702;50.898;4.662;2023-05-07T04:00:30;17.60;99.90
29803;DHT22;16702;50.898;4.662;2023-05-07T04:03:16;17.60;99.90
29803;DHT22;16702;50.898;4.662;2023-05-07T04:05:48;17.60;99.90
29803;DHT22;16702;50.898;4.662;2023-05-07T04:08:19;17.50;99.90
29803;DHT22;16702;50.898;4.662;2023-05-07T04:10:58;17.40;99.90
29803;DHT22;16702;50.898;4.662;2023-05-07T04:13:31;17.50;99.90
29803;DHT22;16702;50.898;4.662;2023-05-07T04:16:05;17.50;99.90
29803;DHT22;16702;50.898;4.662;2023-05-07T04:18:37;17.50;99.90
29803;DHT22;16702;50.898;4.662;2023-05-07T04:21:14;17.50;99.90
29803;DHT22;16702;50.898;4.662;2023-05-07T04:23:47;17.40;99.90
29803;DHT22;16702;50.898;4.662;2023-05-07T04:26:20;17.40;99.90
29803;DHT22;16702;50.898;4.662;2023-05-07T04:28:52;17.40;99.90
29803;DHT22;16702;50.898;4.662;2023-05-07T04:31:22;17.40;99.90
29803;DHT22;16702;50.898;4.662;2023-05-07T04:33:54;17.40;99.90
29803;DHT22;16702;50.898;4.662;2023-05-07T04:36:26;17.40;99.90
29803;DHT22;16702;50.898;4.662;2023-05-07T04:39:02;17.40;99.90
29803;DHT22;16702;50.898;4.662;2023-05-07T04:41:38;17.40;99.90
29803;DHT22;16702;50.898;4.662;2023-05-07T04:44:10;17.40;99.90
29803;DHT22;16702;50.898;4.662;2023-05-07T04:46:42;17.30;99.90
29803;DHT22;16702;50.898;4.662;2023-05-07T04:49:13;17.30;99.90
29803;DHT22;16702;50.898;4.662;2023-05-07T04:51:44;17.30;99.90
29803;DHT22;16702;50.898;4.662;2023-05-07T04:54:20;17.30;99.90
29803;DHT22;16702;50.898;4.662;2023-05-07T04:56:54;17.30;99.90
29803;DHT22;16702;50.898;4.662;2023-05-07T04:59:25;17.10;99.90
29803;DHT22;16702;50.898;4.662;2023-05-07T05:01:56;17.20;99.90
29803;DHT22;16702;50.898;4.662;2023-05-07T05:04:29;17.30;99.90
29803;DHT22;16702;50.898;4.662;2023-05-07T05:07:00;17.30;99.90
29803;DHT22;16702;50.898;4.662;2023-05-07T05:09:31;17.30;99.90
29803;DHT22;16702;50.898;4.662;2023-05-07T05:12:05;17.30;99.90
29803;DHT22;16702;50.898;4.662;2023-05-07T05:14:38;17.30;99.90
29803;DHT22;16702;50.898;4.662;2023-05-07T05:17:09;17.30;99.90
29803;DHT22;16702;50.898;4.662;2023-05-07T05:19:40;17.30;99.90
29803;DHT22;16702;50.898;4.662;2023-05-07T05:22:13;17.30;99.90
29803;DHT22;16702;50.898;4.662;2023-05-07T05:24:45;17.20;99.90
29803;DHT22;16702;50.898;4.662;2023-05-07T05:27:18;17.30;99.90
29803;DHT22;16702;50.898;4.662;2023-05-07T05:29:50;17.30;99.90
29803;DHT22;16702;50.898;4.662;2023-05-07T05:32:21;17.30;99.90
29803;DHT22;16702;50.898;4.662;2023-05-07T05:34:55;17.30;99.90
29803;DHT22;16702;50.898;4.662;2023-05-07T05:37:26;17.40;99.90
29803;DHT22;16702;50.898;4.662;2023-05-07T05:39:59;17.40;99.90
29803;DHT22;16702;50.898;4.662;2023-05-07T05:42:33;17.40;99.90
29803;DHT22;16702;50.898;4.662;2023-05-07T05:45:06;17.50;99.90
29803;DHT22;16702;50.898;4.662;2023-05-07T05:47:38;17.50;99.90
29803;DHT22;16702;50.898;4.662;2023-05-07T05:50:09;17.40;99.90
29803;DHT22;16702;50.898;4.662;2023-05-07T05:52:40;17.50;99.90
29803;DHT22;16702;50.898;4.662;2023-05-07T05:55:12;17.40;99.90
29803;DHT22;16702;50.898;4.662;2023-05-07T05:57:46;17.40;99.90
29803;DHT22;16702;50.898;4.662;2023-05-07T06:00:17;17.40;99.90
29803;DHT22;16702;50.898;4.662;2023-05-07T06:02:59;17.40;99.90
29803;DHT22;16702;50.898;4.662;2023-05-07T06:05:30;17.50;99.90
29803;DHT22;16702;50.898;4.662;2023-05-07T06:08:01;17.50;99.90
29803;DHT22;16702;50.898;4.662;2023-05-07T06:10:35;17.50;99.90
29803;DHT22;16702;50.898;4.662;2023-05-07T06:13:10;17.50;99.90
29803;DHT22;16702;50.898;4.662;2023-05-07T06:15:41;17.50;99.90
29803;DHT22;16702;50.898;4.662;2023-05-07T06:18:13;17.50;99.90
29803;DHT22;16702;50.898;4.662;2023-05-07T06:20:44;17.50;99.90
29803;DHT22;16702;50.898;4.662;2023-05-07T06:23:22;17.50;99.90
29803;DHT22;16702;50.898;4.662;2023-05-07T06:25:53;17.50;99.90
29803;DHT22;16702;50.898;4.662;2023-05-07T06:28:31;17.50;99.90
29803;DHT22;16702;50.898;4.662;2023-05-07T06:31:13;17.50;99.90
29803;DHT22;16702;50.898;4.662;2023-05-07T06:33:50;17.50;99.90
29803;DHT22;16702;50.898;4.662;2023-05-07T06:36:23;17.50;99.90
29803;DHT22;16702;50.898;4.662;2023-05-07T06:38:56;17.50;99.90
29803;DHT22;16702;50.898;4.662;2023-05-07T06:41:27;17.50;99.90
29803;DHT22;16702;50.898;4.662;2023-05-07T06:44:07;17.50;99.90
29803;DHT22;16702;50.898;4.662;2023-05-07T06:46:43;17.50;99.90
29803;DHT22;16702;50.898;4.662;2023-05-07T06:49:14;17.50;99.90
29803;DHT22;16702;50.898;4.662;2023-05-07T06:51:45;17.50;99.90
29803;DHT22;16702;50.898;4.662;2023-05-07T06:54:16;17.60;99.90
29803;DHT22;16702;50.898;4.662;2023-05-07T06:56:47;17.60;99.90
29803;DHT22;16702;50.898;4.662;2023-05-07T06:59:21;17.60;99.90
29803;DHT22;16702;50.898;4.662;2023-05-07T07:01:52;17.60;99.90
29803;DHT22;16702;50.898;4.662;2023-05-07T07:04:23;17.60;99.90
29803;DHT22;16702;50.898;4.662;2023-05-07T07:07:00;17.60;99.90
29803;DHT22;16702;50.898;4.662;2023-05-07T07:09:31;17.60;99.90
29803;DHT22;16702;50.898;4.662;2023-05-07T07:12:04;17.70;99.90
29803;DHT22;16702;50.898;4.662;2023-05-07T07:14:39;17.70;99.90
29803;DHT22;16702;50.898;4.662;2023-05-07T07:17:10;17.70;99.90
29803;DHT22;16702;50.898;4.662;2023-05-07T07:19:40;17.70;99.90
29803;DHT22;16702;50.898;4.662;2023-05-07T07:22:11;17.70;99.90
29803;DHT22;16702;50.898;4.662;2023-05-07T07:24:41;17.70;99.90
29803;DHT22;16702;50.898;4.662;2023-05-07T07:27:15;17.70;99.90
29803;DHT22;16702;50.898;4.662;2023-05-07T07:29:48;17.70;99.90
29803;DHT22;16702;50.898;4.662;2023-05-07T07:32:19;17.80;99.90
29803;DHT22;16702;50.898;4.662;2023-05-07T07:34:51;17.70;99.90
29803;DHT22;16702;50.898;4.662;2023-05-07T07:37:22;17.70;99.90
29803;DHT22;16702;50.898;4.662;2023-05-07T07:39:53;17.70;99.90
29803;DHT22;16702;50.898;4.662;2023-05-07T07:42:23;17.70;99.90
29803;DHT22;16702;50.898;4.662;2023-05-07T07:44:57;17.70;99.90
29803;DHT22;16702;50.898;4.662;2023-05-07T07:47:31;17.70;99.90
29803;DHT22;16702;50.898;4.662;2023-05-07T07:50:02;17.70;99.90
29803;DHT22;16702;50.898;4.662;2023-05-07T07:52:33;17.70;99.90
29803;DHT22;16702;50.898;4.662;2023-05-07T07:55:05;17.70;99.90
29803;DHT22;16702;50.898;4.662;2023-05-07T07:57:36;17.70;99.90
29803;DHT22;16702;50.898;4.662;2023-05-07T08:00:11;17.70;99.90
29803;DHT22;16702;50.898;4.662;2023-05-07T08:02:49;17.70;99.90
29803;DHT22;16702;50.898;4.662;2023-05-07T08:05:25;17.80;99.90
29803;DHT22;16702;50.898;4.662;2023-05-07T08:07:57;17.70;99.90
29803;DHT22;16702;50.898;4.662;2023-05-07T08:10:32;17.80;99.90
29803;DHT22;16702;50.898;4.662;2023-05-07T08:13:12;17.70;99.90
29803;DHT22;16702;50.898;4.662;2023-05-07T08:15:45;17.70;99.90
29803;DHT22;16702;50.898;4.662;2023-05-07T08:18:16;17.70;99.90
29803;DHT22;16702;50.898;4.662;2023-05-07T08:20:47;17.70;99.90
29803;DHT22;16702;50.898;4.662;2023-05-07T08:23:21;17.70;99.90
29803;DHT22;16702;50.898;4.662;2023-05-07T08:25:53;17.70;99.90
29803;DHT22;16702;50.898;4.662;2023-05-07T08:28:24;17.70;99.90
29803;DHT22;16702;50.898;4.662;2023-05-07T08:30:57;17.70;99.90
29803;DHT22;16702;50.898;4.662;2023-05-07T08:33:33;17.70;99.90
29803;DHT22;16702;50.898;4.662;2023-05-07T08:36:05;17.70;99.90
29803;DHT22;16702;50.898;4.662;2023-05-07T08:38:36;17.80;99.90
29803;DHT22;16702;50.898;4.662;2023-05-07T08:41:10;17.80;99.90
29803;DHT22;16702;50.898;4.662;2023-05-07T08:43:46;17.80;99.90
29803;DHT22;16702;50.898;4.662;2023-05-07T08:46:21;17.80;99.90
29803;DHT22;16702;50.898;4.662;2023-05-07T08:48:55;17.90;99.90
29803;DHT22;16702;50.898;4.662;2023-05-07T08:51:26;17.80;99.90
29803;DHT22;16702;50.898;4.662;2023-05-07T08:53:57;17.90;99.90
29803;DHT22;16702;50.898;4.662;2023-05-07T08:56:31;17.90;99.90
29803;DHT22;16702;50.898;4.662;2023-05-07T08:59:02;17.90;99.90
29803;DHT22;16702;50.898;4.662;2023-05-07T09:01:35;17.80;99.90
29803;DHT22;16702;50.898;4.662;2023-05-07T09:04:06;17.80;99.90
29803;DHT22;16702;50.898;4.662;2023-05-07T09:06:37;17.80;99.90
29803;DHT22;16702;50.898;4.662;2023-05-07T09:09:14;17.90;99.90
29803;DHT22;16702;50.898;4.662;2023-05-07T09:11:48;17.90;99.90
29803;DHT22;16702;50.898;4.662;2023-05-07T09:14:21;17.80;99.90
29803;DHT22;16702;50.898;4.662;2023-05-07T09:16:55;17.90;99.90
29803;DHT22;16702;50.898;4.662;2023-05-07T09:19:26;17.90;99.90
29803;DHT22;16702;50.898;4.662;2023-05-07T09:22:00;17.90;99.90
29803;DHT22;16702;50.898;4.662;2023-05-07T09:24:51;17.90;99.90
29803;DHT22;16702;50.898;4.662;2023-05-07T09:27:25;17.90;99.90
29803;DHT22;16702;50.898;4.662;2023-05-07T09:29:57;17.90;99.90
29803;DHT22;16702;50.898;4.662;2023-05-07T09:32:34;17.90;99.90
29803;DHT22;16702;50.898;4.662;2023-05-07T09:35:14;18.00;99.90
29803;DHT22;16702;50.898;4.662;2023-05-07T09:37:51;18.00;99.90
29803;DHT22;16702;50.898;4.662;2023-05-07T09:40:24;18.00;99.90
29803;DHT22;16702;50.898;4.662;2023-05-07T09:43:07;18.00;99.90
29803;DHT22;16702;50.898;4.662;2023-05-07T09:45:44;17.90;99.90
29803;DHT22;16702;50.898;4.662;2023-05-07T09:48:25;18.00;99.90
29803;DHT22;16702;50.898;4.662;2023-05-07T09:51:01;18.00;99.90
29803;DHT22;16702;50.898;4.662;2023-05-07T09:53:34;18.10;99.90
29803;DHT22;16702;50.898;4.662;2023-05-07T09:56:05;18.10;99.90
29803;DHT22;16702;50.898;4.662;2023-05-07T09:58:37;18.10;99.90
29803;DHT22;16702;50.898;4.662;2023-05-07T10:01:10;18.10;99.90
29803;DHT22;16702;50.898;4.662;2023-05-07T10:03:45;18.10;99.90
29803;DHT22;16702;50.898;4.662;2023-05-07T10:06:17;18.10;99.90
29803;DHT22;16702;50.898;4.662;2023-05-07T10:08:49;18.10;99.90
29803;DHT22;16702;50.898;4.662;2023-05-07T10:11:22;18.10;99.90
29803;DHT22;16702;50.898;4.662;2023-05-07T10:13:53;18.10;99.90
29803;DHT22;16702;50.898;4.662;2023-05-07T10:16:23;18.10;99.90
29803;DHT22;16702;50.898;4.662;2023-05-07T10:18:58;18.20;99.90
29803;DHT22;16702;50.898;4.662;2023-05-07T10:21:30;18.10;99.90
29803;DHT22;16702;50.898;4.662;2023-05-07T10:24:05;18.10;99.90
29803;DHT22;16702;50.898;4.662;2023-05-07T10:26:37;18.20;99.90
29803;DHT22;16702;50.898;4.662;2023-05-07T10:29:14;18.20;99.90
29803;DHT22;16702;50.898;4.662;2023-05-07T10:31:57;18.20;99.90
29803;DHT22;16702;50.898;4.662;2023-05-07T10:34:36;18.20;99.90
29803;DHT22;16702;50.898;4.662;2023-05-07T10:37:08;18.20;99.90
29803;DHT22;16702;50.898;4.662;2023-05-07T10:39:40;18.30;99.90
29803;DHT22;16702;50.898;4.662;2023-05-07T10:42:12;18.20;99.90
29803;DHT22;16702;50.898;4.662;2023-05-07T10:44:49;18.20;99.90
29803;DHT22;16702;50.898;4.662;2023-05-07T10:47:27;18.20;99.90
29803;DHT22;16702;50.898;4.662;2023-05-07T10:50:24;18.20;99.90
29803;DHT22;16702;50.898;4.662;2023-05-07T10:53:25;18.20;99.90
29803;DHT22;16702;50.898;4.662;2023-05-07T10:56:26;18.20;99.90
29803;DHT22;16702;50.898;4.662;2023-05-07T10:59:30;18.30;99.90
29803;DHT22;16702;50.898;4.662;2023-05-07T11:02:13;18.30;99.90
29803;DHT22;16702;50.898;4.662;2023-05-07T11:05:19;18.30;99.90
29803;DHT22;16702;50.898;4.662;2023-05-07T11:08:01;18.30;99.90
29803;DHT22;16702;50.898;4.662;2023-05-07T11:10:52;18.30;99.90
29803;DHT22;16702;50.898;4.662;2023-05-07T11:13:48;18.40;99.90
29803;DHT22;16702;50.898;4.662;2023-05-07T11:16:30;18.40;99.90
29803;DHT22;16702;50.898;4.662;2023-05-07T11:19:10;18.40;99.90
29803;DHT22;16702;50.898;4.662;2023-05-07T11:21:45;18.40;99.90
29803;DHT22;16702;50.898;4.662;2023-05-07T11:24:39;18.40;99.90
29803;DHT22;16702;50.898;4.662;2023-05-07T11:27:12;18.50;99.90
29803;DHT22;16702;50.898;4.662;2023-05-07T11:29:46;18.50;99.90
29803;DHT22;16702;50.898;4.662;2023-05-07T11:32:22;18.50;99.90
29803;DHT22;16702;50.898;4.662;2023-05-07T11:34:58;18.50;99.90
29803;DHT22;16702;50.898;4.662;2023-05-07T11:37:29;18.40;99.90
29803;DHT22;16702;50.898;4.662;2023-05-07T11:40:07;18.50;99.90
29803;DHT22;16702;50.898;4.662;2023-05-07T11:42:39;18.60;99.90
29803;DHT22;16702;50.898;4.662;2023-05-07T11:45:10;18.50;99.90
29803;DHT22;16702;50.898;4.662;2023-05-07T11:47:43;18.50;99.90
29803;DHT22;16702;50.898;4.662;2023-05-07T11:50:14;18.60;99.90
29803;DHT22;16702;50.898;4.662;2023-05-07T11:52:50;18.60;99.90
29803;DHT22;16702;50.898;4.662;2023-05-07T11:55:24;18.60;99.90
29803;DHT22;16702;50.898;4.662;2023-05-07T11:57:55;18.60;99.90
29803;DHT22;16702;50.898;4.662;2023-05-07T12:00:25;18.60;99.90
29803;DHT22;16702;50.898;4.662;2023-05-07T12:02:56;18.60;99.90
29803;DHT22;16702;50.898;4.662;2023-05-07T12:05:26;18.60;99.90
29803;DHT22;16702;50.898;4.662;2023-05-07T12:07:58;18.70;99.90
29803;DHT22;16702;50.898;4.662;2023-05-07T12:10:31;18.70;99.90
29803;DHT22;16702;50.898;4.662;2023-05-07T12:13:02;18.80;99.90
29803;DHT22;16702;50.898;4.662;2023-05-07T12:15:35;18.80;99.90
29803;DHT22;16702;50.898;4.662;2023-05-07T12:18:05;18.80;99.90
29803;DHT22;16702;50.898;4.662;2023-05-07T12:20:36;18.80;99.90
29803;DHT22;16702;50.898;4.662;2023-05-07T12:23:07;18.90;99.90
29803;DHT22;16702;50.898;4.662;2023-05-07T12:25:42;18.80;99.90
29803;DHT22;16702;50.898;4.662;2023-05-07T12:28:14;18.80;99.90
29803;DHT22;16702;50.898;4.662;2023-05-07T12:30:47;18.90;99.90
29803;DHT22;16702;50.898;4.662;2023-05-07T12:33:18;19.00;99.90
29803;DHT22;16702;50.898;4.662;2023-05-07T12:35:49;18.90;99.90
29803;DHT22;16702;50.898;4.662;2023-05-07T12:38:19;18.90;99.90
29803;DHT22;16702;50.898;4.662;2023-05-07T12:40:54;19.00;99.90
29803;DHT22;16702;50.898;4.662;2023-05-07T12:43:27;19.00;99.90
29803;DHT22;16702;50.898;4.662;2023-05-07T12:46:01;19.00;99.90
29803;DHT22;16702;50.898;4.662;2023-05-07T12:48:32;19.00;99.90
29803;DHT22;16702;50.898;4.662;2023-05-07T12:51:03;19.00;99.90
29803;DHT22;16702;50.898;4.662;2023-05-07T12:53:40;19.00;99.90
29803;DHT22;16702;50.898;4.662;2023-05-07T12:56:15;19.00;99.90
29803;DHT22;16702;50.898;4.662;2023-05-07T12:58:48;19.00;99.90
29803;DHT22;16702;50.898;4.662;2023-05-07T13:01:19;19.10;99.90
29803;DHT22;16702;50.898;4.662;2023-05-07T13:03:51;19.10;99.90
29803;DHT22;16702;50.898;4.662;2023-05-07T13:06:22;19.00;99.90
29803;DHT22;16702;50.898;4.662;2023-05-07T13:08:53;19.10;99.90
29803;DHT22;16702;50.898;4.662;2023-05-07T13:11:26;19.10;99.90
29803;DHT22;16702;50.898;4.662;2023-05-07T13:13:57;19.20;99.90
29803;DHT22;16702;50.898;4.662;2023-05-07T13:16:27;19.10;99.90
29803;DHT22;16702;50.898;4.662;2023-05-07T13:18:58;19.10;99.90
29803;DHT22;16702;50.898;4.662;2023-05-07T13:21:28;19.10;99.90
29803;DHT22;16702;50.898;4.662;2023-05-07T13:24:00;19.20;99.90
29803;DHT22;16702;50.898;4.662;2023-05-07T13:26:33;19.20;99.90
29803;DHT22;16702;50.898;4.662;2023-05-07T13:29:03;19.20;99.90
29803;DHT22;16702;50.898;4.662;2023-05-07T13:31:34;19.20;99.90
29803;DHT22;16702;50.898;4.662;2023-05-07T13:34:04;19.20;99.90
29803;DHT22;16702;50.898;4.662;2023-05-07T13:36:34;19.30;99.90
29803;DHT22;16702;50.898;4.662;2023-05-07T13:39:07;19.30;99.90
29803;DHT22;16702;50.898;4.662;2023-05-07T13:41:40;19.30;99.90
29803;DHT22;16702;50.898;4.662;2023-05-07T13:44:10;19.30;99.90
29803;DHT22;16702;50.898;4.662;2023-05-07T13:46:41;19.30;99.90
29803;DHT22;16702;50.898;4.662;2023-05-07T13:49:11;19.30;99.90
29803;DHT22;16702;50.898;4.662;2023-05-07T13:51:41;19.30;99.90
29803;DHT22;16702;50.898;4.662;2023-05-07T13:54:12;19.30;99.90
29803;DHT22;16702;50.898;4.662;2023-05-07T13:56:45;19.30;99.90
29803;DHT22;16702;50.898;4.662;2023-05-07T13:59:17;19.30;99.90
29803;DHT22;16702;50.898;4.662;2023-05-07T14:01:47;19.40;99.90
29803;DHT22;16702;50.898;4.662;2023-05-07T14:04:17;19.40;99.90
29803;DHT22;16702;50.898;4.662;2023-05-07T14:06:48;19.30;99.90
29803;DHT22;16702;50.898;4.662;2023-05-07T14:09:18;19.30;99.90
29803;DHT22;16702;50.898;4.662;2023-05-07T14:11:51;19.30;99.90
29803;DHT22;16702;50.898;4.662;2023-05-07T14:14:22;19.40;99.90
29803;DHT22;16702;50.898;4.662;2023-05-07T14:16:52;19.40;99.90
29803;DHT22;16702;50.898;4.662;2023-05-07T14:19:23;19.40;99.90
29803;DHT22;16702;50.898;4.662;2023-05-07T14:21:53;19.40;99.90
29803;DHT22;16702;50.898;4.662;2023-05-07T14:24:25;19.30;99.90
29803;DHT22;16702;50.898;4.662;2023-05-07T14:27:07;19.30;99.90
29803;DHT22;16702;50.898;4.662;2023-05-07T14:29:37;19.40;99.90
29803;DHT22;16702;50.898;4.662;2023-05-07T14:32:08;19.40;99.90
29803;DHT22;16702;50.898;4.662;2023-05-07T14:34:38;19.40;99.90
29803;DHT22;16702;50.898;4.662;2023-05-07T14:37:08;19.40;99.90
29803;DHT22;16702;50.898;4.662;2023-05-07T14:39:39;19.50;99.90
29803;DHT22;16702;50.898;4.662;2023-05-07T14:42:12;19.50;99.90
29803;DHT22;16702;50.898;4.662;2023-05-07T14:44:43;19.50;99.90
29803;DHT22;16702;50.898;4.662;2023-05-07T14:47:15;19.50;99.90
29803;DHT22;16702;50.898;4.662;2023-05-07T14:49:46;19.50;99.90
29803;DHT22;16702;50.898;4.662;2023-05-07T14:52:16;19.50;99.90
29803;DHT22;16702;50.898;4.662;2023-05-07T14:54:47;19.50;99.90
29803;DHT22;16702;50.898;4.662;2023-05-07T14:57:20;19.50;99.90
29803;DHT22;16702;50.898;4.662;2023-05-07T14:59:50;19.50;99.90
29803;DHT22;16702;50.898;4.662;2023-05-07T15:02:21;19.50;99.90
29803;DHT22;16702;50.898;4.662;2023-05-07T15:04:52;19.50;99.90
29803;DHT22;16702;50.898;4.662;2023-05-07T15:07:22;19.60;99.90
29803;DHT22;16702;50.898;4.662;2023-05-07T15:09:53;19.60;99.90
29803;DHT22;16702;50.898;4.662;2023-05-07T15:12:26;19.60;99.90
29803;DHT22;16702;50.898;4.662;2023-05-07T15:14:57;19.50;99.90
29803;DHT22;16702;50.898;4.662;2023-05-07T15:17:27;19.50;99.90
29803;DHT22;16702;50.898;4.662;2023-05-07T15:19:58;19.50;99.90
29803;DHT22;16702;50.898;4.662;2023-05-07T15:22:28;19.50;99.90
29803;DHT22;16702;50.898;4.662;2023-05-07T15:24:59;19.50;99.90
29803;DHT22;16702;50.898;4.662;2023-05-07T15:27:34;19.50;99.90
29803;DHT22;16702;50.898;4.662;2023-05-07T15:30:06;19.50;99.90
29803;DHT22;16702;50.898;4.662;2023-05-07T15:32:37;19.50;99.90
29803;DHT22;16702;50.898;4.662;2023-05-07T15:35:09;19.60;99.90
29803;DHT22;16702;50.898;4.662;2023-05-07T15:37:40;19.60;99.90
29803;DHT22;16702;50.898;4.662;2023-05-07T15:40:12;19.50;99.90
29803;DHT22;16702;50.898;4.662;2023-05-07T15:42:45;19.60;99.90
29803;DHT22;16702;50.898;4.662;2023-05-07T15:45:15;19.60;99.90
29803;DHT22;16702;50.898;4.662;2023-05-07T15:47:46;19.60;99.90
29803;DHT22;16702;50.898;4.662;2023-05-07T15:50:16;19.60;99.90
29803;DHT22;16702;50.898;4.662;2023-05-07T15:52:47;19.60;99.90
29803;DHT22;16702;50.898;4.662;2023-05-07T15:55:17;19.60;99.90
29803;DHT22;16702;50.898;4.662;2023-05-07T15:57:50;19.60;99.90
29803;DHT22;16702;50.898;4.662;2023-05-07T16:00:21;19.50;99.90
29803;DHT22;16702;50.898;4.662;2023-05-07T16:02:52;19.60;99.90
29803;DHT22;16702;50.898;4.662;2023-05-07T16:05:23;19.50;99.90
29803;DHT22;16702;50.898;4.662;2023-05-07T16:07:54;19.50;99.90